Time;durP1;ratioP1;P1;durP2;ratioP2;P2;SDS_P1;SDS_P2;PMS_P1;PMS_P2;Temp;Humidity;BMP_temperature;BMP_pressure;BME280_temperature;BME280_humidity;BME280_pressure;Samples;Min_cycle;Max_cycle;Signal;HPM_P1;HPM_P2
2021/03/29 00:00:17;;;;;;;6.27;2.80;;;;;;;3.75;69.00;100112.03;5035904;28;20029;-69
2021/03/29 00:02:42;;;;;;;5.27;3.83;;;;;;;3.71;69.13;100115.28;5033010;28;20053;-69
2021/03/29 00:05:09;;;;;;;4.43;3.33;;;;;;;3.68;69.31;100116.94;5035568;28;20049;-69
2021/03/29 00:07:35;;;;;;;9.00;3.40;;;;;;;3.65;69.69;100110.88;5032830;28;20370;-69
2021/03/29 00:10:06;;;;;;;4.07;2.87;;;;;;;3.68;69.96;100111.88;5035843;28;20029;-69
2021/03/29 00:12:32;;;;;;;8.00;2.50;;;;;;;3.74;69.33;100112.84;5030754;28;20088;-68
2021/03/29 00:14:58;;;;;;;6.07;2.93;;;;;;;3.86;68.74;100120.88;5036210;28;20041;-68
2021/03/29 00:17:24;;;;;;;10.03;3.20;;;;;;;3.95;68.08;100124.53;5036571;28;20444;-69
2021/03/29 00:19:50;;;;;;;4.67;2.50;;;;;;;4.08;68.43;100126.66;5032036;28;20334;-69
2021/03/29 00:22:16;;;;;;;7.27;3.00;;;;;;;4.06;68.33;100129.97;5034698;28;20395;-69
2021/03/29 00:24:42;;;;;;;3.63;2.27;;;;;;;4.04;68.20;100124.81;5034041;28;20414;-69
2021/03/29 00:27:08;;;;;;;3.93;2.80;;;;;;;4.03;68.32;100125.63;5034139;28;20109;-69
2021/03/29 00:29:33;;;;;;;5.00;2.97;;;;;;;4.03;68.68;100122.25;5032054;28;20151;-69
2021/03/29 00:32:00;;;;;;;7.80;3.00;;;;;;;4.02;68.58;100118.88;5035750;28;20155;-70
2021/03/29 00:34:26;;;;;;;4.60;2.53;;;;;;;4.18;68.51;100129.47;5029947;28;20052;-68
2021/03/29 00:36:53;;;;;;;7.67;2.90;;;;;;;4.29;68.07;100130.63;5034223;28;20021;-69
2021/03/29 00:39:21;;;;;;;5.60;2.33;;;;;;;4.34;67.38;100108.81;5030633;28;20068;-69
2021/03/29 00:41:47;;;;;;;4.50;2.37;;;;;;;4.47;67.36;100126.97;5034285;28;20029;-69
2021/03/29 00:44:14;;;;;;;6.97;2.30;;;;;;;4.43;67.47;100116.69;5031822;28;20377;-69
2021/03/29 00:46:41;;;;;;;3.17;2.10;;;;;;;4.49;67.18;100122.81;5034133;28;20398;-68
2021/03/29 00:49:07;;;;;;;4.00;2.63;;;;;;;4.57;67.03;100131.53;5031265;28;20072;-68
2021/03/29 00:51:35;;;;;;;4.83;2.17;;;;;;;4.63;66.89;100127.41;5034450;28;20075;-68
2021/03/29 00:54:04;;;;;;;4.00;2.50;;;;;;;4.60;67.00;100120.56;5029749;28;20064;-69
2021/03/29 00:56:31;;;;;;;3.10;1.90;;;;;;;4.63;67.00;100120.66;5035636;28;20295;-69
2021/03/29 00:58:58;;;;;;;2.63;1.73;;;;;;;4.66;66.86;100115.69;5032827;28;20091;-69
2021/03/29 01:01:38;;;;;;;4.90;2.37;;;;;;;4.70;66.27;100122.56;5034759;28;20217;-69
2021/03/29 01:04:05;;;;;;;5.53;2.17;;;;;;;4.80;66.10;100123.66;5032837;28;20026;-68
2021/03/29 01:06:34;;;;;;;3.83;2.00;;;;;;;4.86;65.46;100109.47;5030884;28;20033;-69
2021/03/29 01:09:05;;;;;;;4.00;1.80;;;;;;;4.99;65.17;100121.69;5033073;28;20033;-69
2021/03/29 01:11:34;;;;;;;2.77;2.20;;;;;;;5.04;65.16;100114.19;5029990;28;20033;-68
2021/03/29 01:14:35;;;;;;;5.63;2.23;;;;;;;5.20;64.45;100121.41;5035297;28;20356;-69
2021/03/29 01:17:23;;;;;;;4.83;2.87;;;;;;;5.32;64.14;100115.75;5014506;28;20120;-69
2021/03/29 01:20:11;;;;;;;5.27;1.97;;;;;;;5.35;64.34;100113.28;5028114;28;20068;-69
2021/03/29 01:22:48;;;;;;;3.10;2.23;;;;;;;5.37;63.94;100109.13;5030387;28;20045;-69
2021/03/29 01:25:46;;;;;;;3.17;1.90;;;;;;;5.40;63.70;100114.28;5031589;28;20061;-69
2021/03/29 01:28:15;;;;;;;4.57;1.93;;;;;;;5.34;64.27;100112.47;5011493;28;20470;-69
2021/03/29 01:30:42;;;;;;;6.33;2.00;;;;;;;5.42;63.50;100120.28;5010968;28;20049;-68
2021/03/29 01:33:09;;;;;;;3.47;2.20;;;;;;;5.41;63.91;100118.53;4995465;28;20088;-69
2021/03/29 01:35:46;;;;;;;4.67;2.20;;;;;;;5.43;63.90;100107.59;5010690;28;20042;-69
2021/03/29 01:38:12;;;;;;;4.57;2.00;;;;;;;5.42;64.19;100115.19;5011147;28;20049;-69
2021/03/29 01:40:41;;;;;;;5.87;2.30;;;;;;;5.44;64.03;100104.22;5007890;28;20065;-69
2021/03/29 01:43:08;;;;;;;5.77;1.90;;;;;;;5.47;64.07;100113.63;5011223;28;20284;-69
2021/03/29 01:45:35;;;;;;;2.67;2.00;;;;;;;5.47;63.93;100106.84;5007820;28;20050;-69
2021/03/29 01:48:05;;;;;;;4.50;2.50;;;;;;;5.66;63.07;100118.34;5008836;28;20046;-69
2021/03/29 01:50:34;;;;;;;4.73;1.93;;;;;;;5.61;63.54;100119.91;5012812;28;20030;-69
2021/03/29 01:53:01;;;;;;;5.03;1.47;;;;;;;5.63;63.12;100117.41;5009507;28;20073;-69
2021/03/29 01:55:29;;;;;;;2.27;1.63;;;;;;;5.65;63.18;100113.19;5010402;28;20041;-69
2021/03/29 01:57:55;;;;;;;4.10;2.10;;;;;;;5.61;63.13;100109.72;5008135;28;20447;-69
2021/03/29 02:00:29;;;;;;;6.27;2.30;;;;;;;5.56;63.70;100116.38;4997082;28;20068;-70
2021/03/29 02:02:55;;;;;;;3.63;2.43;;;;;;;5.42;64.33;100110.97;5010967;28;20291;-69
2021/03/29 02:05:22;;;;;;;8.57;2.77;;;;;;;5.42;64.22;100094.84;5032952;28;20283;-69
2021/03/29 02:07:48;;;;;;;9.27;2.40;;;;;;;5.38;64.85;100104.09;5038981;28;20046;-70
2021/03/29 02:10:25;;;;;;;3.53;1.70;;;;;;;5.47;63.71;100111.91;5038536;28;20405;-69
2021/03/29 02:12:52;;;;;;;2.80;1.77;;;;;;;5.49;63.31;100109.44;5035707;28;20370;-69
2021/03/29 02:15:25;;;;;;;4.03;1.80;;;;;;;5.50;63.67;100100.97;5032866;28;20140;-70
2021/03/29 02:17:54;;;;;;;5.90;2.10;;;;;;;5.52;64.01;100105.28;5034491;28;20025;-70
2021/03/29 02:20:24;;;;;;;4.23;2.20;;;;;;;5.45;64.49;100105.09;5033421;28;20064;-70
2021/03/29 02:22:52;;;;;;;2.87;1.90;;;;;;;5.46;64.21;100094.09;5028792;28;20297;-67
2021/03/29 02:25:20;;;;;;;4.63;2.27;;;;;;;5.49;63.97;100099.25;5030621;28;20026;-68
2021/03/29 02:27:49;;;;;;;3.47;2.20;;;;;;;5.38;64.19;100083.75;5032286;28;20098;-69
2021/03/29 02:30:18;;;;;;;7.17;2.63;;;;;;;5.52;64.07;100102.72;5034822;28;20186;-68
2021/03/29 02:32:45;;;;;;;5.10;2.03;;;;;;;5.53;63.86;100099.38;5032987;28;20066;-68
2021/03/29 02:35:12;;;;;;;6.23;2.33;;;;;;;5.55;63.85;100096.00;5029000;28;20049;-68
2021/03/29 02:37:39;;;;;;;3.60;1.67;;;;;;;5.57;63.65;100097.75;5033577;28;20025;-68
2021/03/29 02:40:08;;;;;;;3.80;2.00;;;;;;;5.53;63.69;100083.25;5031651;28;20064;-68
2021/03/29 02:42:35;;;;;;;3.37;1.80;;;;;;;5.59;63.74;100105.44;5033680;28;20078;-68
2021/03/29 02:45:12;;;;;;;2.90;2.03;;;;;;;5.61;63.81;100103.78;5028729;28;20033;-68
2021/03/29 02:47:45;;;;;;;6.80;1.83;;;;;;;5.66;63.63;100103.06;5049309;28;20049;-69
2021/03/29 02:50:17;;;;;;;4.63;2.10;;;;;;;5.68;63.91;100106.53;5025366;28;20034;-69
2021/03/29 02:52:52;;;;;;;3.17;2.00;;;;;;;5.73;63.23;100104.94;5035021;28;20022;-69
2021/03/29 02:55:18;;;;;;;4.53;1.88;;;;;;;5.73;63.31;100099.84;5036479;28;20052;-69
2021/03/29 02:57:46;;;;;;;3.50;2.07;;;;;;;5.72;63.31;100105.78;5036768;28;20033;-69
2021/03/29 03:00:15;;;;;;;2.90;1.83;;;;;;;5.66;63.73;100107.28;5036076;28;20057;-68
2021/03/29 03:02:43;;;;;;;7.03;3.07;;;;;;;5.53;64.28;100104.47;5036906;28;20282;-68
2021/03/29 03:05:10;;;;;;;4.67;2.10;;;;;;;5.47;64.12;100094.13;5035964;28;20025;-68
2021/03/29 03:07:37;;;;;;;4.17;1.90;;;;;;;5.54;64.08;100097.69;5038023;28;20112;-68
2021/03/29 03:10:09;;;;;;;3.87;1.67;;;;;;;5.58;63.98;100099.47;5035691;28;20136;-68
2021/03/29 03:12:35;;;;;;;7.17;2.07;;;;;;;5.50;64.48;100099.31;5031953;28;20036;-68
2021/03/29 03:15:01;;;;;;;4.23;1.63;;;;;;;5.51;63.39;100098.47;5035033;28;20025;-68
2021/03/29 03:17:27;;;;;;;2.27;1.43;;;;;;;5.48;63.67;100098.38;5031893;28;20429;-68
2021/03/29 03:19:52;;;;;;;7.50;2.07;;;;;;;5.47;64.00;100100.91;5036787;28;20065;-68
2021/03/29 03:22:18;;;;;;;4.57;2.20;;;;;;;5.42;64.25;100100.78;5035523;28;20385;-69
2021/03/29 03:24:43;;;;;;;3.33;2.07;;;;;;;5.46;63.91;100102.59;5038137;28;20060;-69
2021/03/29 03:27:10;;;;;;;6.07;2.40;;;;;;;5.52;63.55;100095.09;5032353;28;20048;-69
2021/03/29 03:29:43;;;;;;;8.63;1.80;;;;;;;5.56;63.27;100103.66;5036118;28;20179;-69
2021/03/29 03:32:13;;;;;;;3.83;2.00;;;;;;;5.65;63.14;100100.47;5030906;28;20044;-69
2021/03/29 03:34:39;;;;;;;5.73;2.27;;;;;;;5.68;62.96;100103.97;5036252;28;20042;-70
2021/03/29 03:37:08;;;;;;;6.83;2.10;;;;;;;5.65;63.26;100105.56;5033660;28;20036;-69
2021/03/29 03:39:35;;;;;;;4.67;2.10;;;;;;;5.56;63.26;100095.19;5033593;28;20335;-69
2021/03/29 03:42:02;;;;;;;5.77;2.00;;;;;;;5.58;63.49;100103.72;5031316;28;20040;-70
2021/03/29 03:44:30;;;;;;;4.17;2.07;;;;;;;5.55;63.61;100103.63;5033076;28;20025;-70
2021/03/29 03:46:56;;;;;;;2.13;1.90;;;;;;;5.46;64.04;100094.97;5034833;28;20050;-70
2021/03/29 03:49:23;;;;;;;5.00;2.30;;;;;;;5.48;64.06;100087.34;5030986;28;20030;-70
2021/03/29 03:51:50;;;;;;;3.87;2.40;;;;;;;5.43;64.56;100091.50;5035079;28;20091;-70
2021/03/29 03:54:18;;;;;;;4.27;2.40;;;;;;;5.42;64.58;100090.63;5029768;28;20234;-70
2021/03/29 03:56:44;;;;;;;3.47;2.30;;;;;;;5.36;64.90;100092.13;5035156;28;20412;-70
2021/03/29 03:59:12;;;;;;;4.70;2.37;;;;;;;5.34;64.92;100097.19;5032983;28;20037;-69
2021/03/29 04:02:13;;;;;;;6.07;2.60;;;;;;;5.30;65.16;100100.50;5036392;28;20037;-70
2021/03/29 04:04:39;;;;;;;2.93;2.13;;;;;;;5.19;65.61;100093.38;5032434;28;20029;-70
2021/03/29 04:07:04;;;;;;;10.90;2.27;;;;;;;5.25;65.30;100098.66;5033544;28;20415;-68
2021/03/29 04:12:08;;;;;;;6.00;2.30;;;;;;;5.22;65.69;100101.94;5033004;28;20331;-69
2021/03/29 04:14:34;;;;;;;8.50;2.77;;;;;;;5.25;65.72;100102.06;5037157;28;20105;-70
2021/03/29 04:16:59;;;;;;;5.03;2.03;;;;;;;5.24;65.23;100087.59;5031099;28;20304;-70
2021/03/29 04:19:24;;;;;;;4.50;2.50;;;;;;;5.25;65.81;100094.41;5033537;28;20033;-69
2021/03/29 04:21:50;;;;;;;5.60;2.20;;;;;;;5.27;65.81;100092.75;5029853;28;20319;-69
2021/03/29 04:24:17;;;;;;;3.87;1.80;;;;;;;5.32;65.71;100088.66;5033216;28;20079;-68
2021/03/29 04:26:43;;;;;;;8.73;3.90;;;;;;;5.24;65.80;100087.59;5032799;28;20053;-70
2021/03/29 04:29:08;;;;;;;3.13;2.10;;;;;;;5.30;65.59;100092.88;5035961;28;20316;-68
2021/03/29 04:31:34;;;;;;;7.60;2.87;;;;;;;5.39;65.41;100093.06;5030166;28;20029;-69
2021/03/29 04:33:59;;;;;;;3.20;2.43;;;;;;;5.50;64.81;100096.75;5033481;28;20461;-69
2021/03/29 04:36:25;;;;;;;8.93;2.27;;;;;;;5.53;64.56;100091.75;5030005;28;20105;-69
2021/03/29 04:38:50;;;;;;;5.97;2.03;;;;;;;5.72;64.46;100104.91;5035012;28;20025;-68
2021/03/29 04:41:15;;;;;;;4.73;1.97;;;;;;;5.71;64.46;100098.09;5031224;28;20044;-70
2021/03/29 04:43:41;;;;;;;3.63;2.13;;;;;;;5.74;64.59;100105.78;5035121;28;20033;-69
2021/03/29 04:46:06;;;;;;;5.67;2.07;;;;;;;5.83;64.35;100106.00;5030955;28;20053;-69
2021/03/29 04:48:32;;;;;;;6.20;2.20;;;;;;;5.84;63.75;100097.56;5035257;28;20401;-69
2021/03/29 04:50:57;;;;;;;7.90;2.60;;;;;;;5.81;64.03;100092.41;5029340;28;20037;-69
2021/03/29 04:53:22;;;;;;;4.00;2.47;;;;;;;5.86;64.48;100103.53;5034258;28;20029;-69
2021/03/29 04:55:48;;;;;;;4.57;2.50;;;;;;;5.83;64.51;100094.16;5033285;28;20389;-69
2021/03/29 04:58:13;;;;;;;8.67;3.53;;;;;;;5.84;64.69;100100.09;5032626;28;20621;-70
2021/03/29 05:00:38;;;;;;;6.60;3.37;;;;;;;5.91;64.07;100102.00;5030132;28;20355;-70
2021/03/29 05:03:04;;;;;;;5.30;2.70;;;;;;;5.95;63.86;100101.22;5031532;28;20104;-71
2021/03/29 05:05:30;;;;;;;5.90;2.93;;;;;;;5.93;63.60;100106.31;5035430;28;20025;-71
2021/03/29 05:07:55;;;;;;;5.37;2.63;;;;;;;6.02;63.60;100102.25;5031437;28;20275;-69
2021/03/29 05:10:20;;;;;;;3.80;2.40;;;;;;;6.04;63.55;100110.78;5031941;28;20093;-70
2021/03/29 05:12:46;;;;;;;6.50;2.37;;;;;;;6.04;63.03;100111.63;5029821;28;20120;-70
2021/03/29 05:15:13;;;;;;;8.43;2.40;;;;;;;6.04;63.85;100109.09;5032163;28;20036;-69
2021/03/29 05:17:38;;;;;;;3.40;1.90;;;;;;;6.20;63.25;100120.47;5035176;28;20051;-70
2021/03/29 05:20:06;;;;;;;3.83;2.33;;;;;;;6.23;62.81;100121.41;5034453;28;20027;-69
2021/03/29 05:22:31;;;;;;;5.43;2.40;;;;;;;6.30;62.41;100117.31;5028504;28;20461;-70
2021/03/29 05:24:57;;;;;;;6.87;2.40;;;;;;;6.35;61.73;100108.94;5032362;28;20101;-72
2021/03/29 05:27:22;;;;;;;6.07;2.67;;;;;;;6.46;62.13;100124.44;5029275;28;20029;-71
2021/03/29 05:29:47;;;;;;;6.10;2.47;;;;;;;6.48;62.37;100114.31;5034227;28;20025;-70
2021/03/29 05:32:15;;;;;;;6.13;3.63;;;;;;;6.53;61.90;100122.91;5030187;28;20095;-69
2021/03/29 05:34:42;;;;;;;8.43;4.03;;;;;;;6.54;62.25;100120.38;5035346;28;20029;-70
2021/03/29 05:37:08;;;;;;;6.60;3.67;;;;;;;6.55;62.49;100127.19;5036607;28;20095;-70
2021/03/29 05:39:33;;;;;;;7.97;4.50;;;;;;;6.59;62.38;100125.56;5034895;28;20621;-71
2021/03/29 05:41:59;;;;;;;5.93;3.77;;;;;;;6.64;61.97;100131.63;5029898;28;20112;-70
2021/03/29 05:44:25;;;;;;;4.33;3.77;;;;;;;6.68;61.87;100131.72;5035006;28;20282;-72
2021/03/29 05:46:51;;;;;;;6.57;3.43;;;;;;;6.59;62.10;100131.53;5034310;28;20064;-70
2021/03/29 05:49:16;;;;;;;6.40;3.27;;;;;;;6.63;62.46;100127.34;5034375;28;20116;-72
2021/03/29 05:51:42;;;;;;;6.73;4.50;;;;;;;6.66;62.57;100130.81;5031154;28;20100;-70
2021/03/29 05:54:08;;;;;;;7.63;4.10;;;;;;;6.83;62.09;100128.63;5032281;28;20048;-71
2021/03/29 05:56:36;;;;;;;6.00;4.63;;;;;;;6.88;61.98;100127.88;5033327;28;20087;-71
2021/03/29 06:01:48;;;;;;;5.37;3.53;;;;;;;7.02;61.57;100143.44;5033581;28;20131;-71
2021/03/29 06:04:16;;;;;;;9.10;3.50;;;;;;;7.19;61.31;100139.53;5031606;28;20025;-69
2021/03/29 06:06:42;;;;;;;5.57;3.90;;;;;;;7.14;61.36;100136.03;5048382;28;20025;-69
2021/03/29 06:09:09;;;;;;;8.87;4.57;;;;;;;7.26;61.25;100140.50;5033056;28;20457;-69
2021/03/29 06:11:42;;;;;;;9.07;5.63;;;;;;;7.35;60.62;100148.31;5032380;28;20029;-71
2021/03/29 06:14:22;;;;;;;7.47;2.83;;;;;;;7.34;60.86;100131.31;5030310;28;20094;-69
2021/03/29 06:16:56;;;;;;;4.87;2.53;;;;;;;7.56;60.62;100145.28;5029285;28;20028;-70
2021/03/29 06:19:54;;;;;;;4.53;2.57;;;;;;;7.70;60.01;100147.25;5030241;28;20116;-71
2021/03/29 06:22:19;;;;;;;4.60;2.77;;;;;;;7.80;59.92;100150.81;5032135;28;20037;-71
2021/03/29 06:24:50;;;;;;;9.53;3.63;;;;;;;7.86;59.72;100153.47;5034528;28;20029;-70
2021/03/29 06:27:16;;;;;;;10.97;3.87;;;;;;;7.97;59.64;100154.50;5031624;28;20104;-68
2021/03/29 06:29:42;;;;;;;10.40;6.30;;;;;;;7.96;58.96;100155.34;5037836;28;20175;-69
2021/03/29 06:32:07;;;;;;;14.07;7.23;;;;;;;8.06;59.06;100149.50;5031835;28;20069;-69
2021/03/29 06:34:33;;;;;;;11.43;6.33;;;;;;;8.02;59.60;100150.31;5039129;28;20167;-71
2021/03/29 06:37:06;;;;;;;10.00;4.73;;;;;;;8.12;59.21;100158.97;5037304;28;20025;-70
2021/03/29 06:39:35;;;;;;;7.07;4.20;;;;;;;8.15;59.02;100149.66;5037957;28;20202;-70
2021/03/29 06:42:01;;;;;;;5.20;3.33;;;;;;;8.10;59.27;100161.53;5033077;28;20358;-70
2021/03/29 06:44:29;;;;;;;5.80;3.60;;;;;;;8.19;59.00;100161.63;5037081;28;20116;-70
2021/03/29 06:47:14;;;;;;;6.37;2.67;;;;;;;8.39;58.48;100151.75;5026438;28;20065;-70
2021/03/29 06:49:42;;;;;;;6.10;3.55;;;;;;;8.42;58.56;100153.50;5031094;28;20029;-70
2021/03/29 06:52:27;;;;;;;6.23;3.00;;;;;;;8.54;57.84;100154.50;5032247;28;20086;-69
2021/03/29 06:54:54;;;;;;;6.83;4.20;;;;;;;8.70;57.93;100151.31;5033226;28;20073;-69
2021/03/29 06:57:31;;;;;;;15.90;7.10;;;;;;;8.79;56.70;100150.56;5030132;28;20029;-70
2021/03/29 06:59:57;;;;;;;13.20;5.67;;;;;;;8.82;56.41;100140.41;5029878;28;20037;-69
2021/03/29 07:02:47;;;;;;;9.50;4.40;;;;;;;8.82;56.96;100149.78;5031978;28;20075;-67
2021/03/29 07:05:15;;;;;;;9.60;4.50;;;;;;;8.87;56.66;100143.84;5031818;28;20276;-68
2021/03/29 07:07:41;;;;;;;5.67;4.00;;;;;;;8.93;56.21;100149.06;5030019;28;20083;-69
2021/03/29 07:10:10;;;;;;;10.77;3.30;;;;;;;8.86;56.08;100149.84;5032761;28;20108;-69
2021/03/29 07:12:40;;;;;;;5.17;3.17;;;;;;;9.01;56.96;100157.69;5035845;28;20025;-68
2021/03/29 07:15:09;;;;;;;16.87;7.60;;;;;;;9.09;57.39;100165.44;5034983;28;20262;-69
2021/03/29 07:17:39;;;;;;;11.27;6.90;;;;;;;9.20;55.76;100158.75;5036976;28;20021;-69
2021/03/29 07:20:12;;;;;;;10.90;5.50;;;;;;;9.24;56.90;100159.66;5035234;28;20314;-68
2021/03/29 07:22:39;;;;;;;7.67;4.03;;;;;;;9.32;56.59;100160.59;5031050;28;20117;-68
2021/03/29 07:25:11;;;;;;;6.97;4.73;;;;;;;9.45;55.24;100159.88;5035473;28;20108;-69
2021/03/29 07:27:43;;;;;;;10.63;5.67;;;;;;;9.69;54.99;100160.09;5037792;28;20029;-68
2021/03/29 07:30:11;;;;;;;11.53;5.50;;;;;;;9.92;55.10;100165.44;5037640;28;20718;-68
2021/03/29 07:32:36;;;;;;;10.97;5.50;;;;;;;10.19;53.26;100169.91;5032519;28;20037;-69
2021/03/29 07:35:06;;;;;;;11.77;5.60;;;;;;;10.48;52.72;100171.81;5037009;28;20021;-69
2021/03/29 07:37:43;;;;;;;16.10;6.40;;;;;;;10.73;53.20;100180.53;5032254;28;20386;-69
2021/03/29 07:40:18;;;;;;;15.63;8.07;;;;;;;10.90;53.04;100186.63;5035055;28;20041;-69
2021/03/29 07:42:51;;;;;;;19.05;8.38;;;;;;;10.99;53.86;100180.63;5034758;28;20113;-69
2021/03/29 07:45:25;;;;;;;16.07;7.53;;;;;;;11.15;52.40;100185.00;5035756;28;20374;-68
2021/03/29 07:47:57;;;;;;;13.27;6.87;;;;;;;11.42;51.70;100182.50;5037185;28;20082;-68
2021/03/29 07:50:29;;;;;;;10.47;6.37;;;;;;;11.74;51.26;100184.31;5036472;28;20113;-68
2021/03/29 07:53:02;;;;;;;11.27;6.27;;;;;;;11.96;50.48;100195.47;5033032;28;20034;-68
2021/03/29 07:55:44;;;;;;;14.00;6.65;;;;;;;12.23;50.04;100183.47;5033652;28;20276;-68
2021/03/29 07:58:13;;;;;;;18.85;6.10;;;;;;;12.25;49.96;100188.59;5036897;28;20029;-70
2021/03/29 08:00:38;;;;;;;10.43;6.03;;;;;;;12.33;49.26;100189.44;5034931;28;20029;-70
2021/03/29 08:03:12;;;;;;;11.63;5.95;;;;;;;12.48;48.83;100189.41;5035032;28;20398;-70
2021/03/29 08:05:46;;;;;;;7.93;5.10;;;;;;;12.48;49.51;100184.28;5029663;28;20057;-68
2021/03/29 08:08:41;;;;;;;8.70;4.65;;;;;;;12.60;49.42;100191.13;5035087;28;20025;-69
2021/03/29 08:11:19;;;;;;;10.65;5.18;;;;;;;12.78;49.20;100186.78;5034023;28;20076;-68
2021/03/29 08:13:53;;;;;;;10.60;4.45;;;;;;;13.07;48.23;100185.84;5034616;28;20029;-68
2021/03/29 08:16:21;;;;;;;8.27;4.38;;;;;;;13.22;48.22;100188.38;5035685;28;20037;-70
2021/03/29 08:19:09;;;;;;;5.80;3.65;;;;;;;13.35;45.93;100184.88;5032996;28;20323;-68
2021/03/29 08:21:55;;;;;;;5.28;4.47;;;;;;;13.42;44.63;100185.69;5036587;28;20439;-70
2021/03/29 08:24:26;;;;;;;7.38;4.40;;;;;;;13.61;43.52;100188.16;5032802;28;20279;-69
2021/03/29 08:26:58;;;;;;;6.97;3.67;;;;;;;13.92;42.96;100190.53;5034508;28;20037;-70
2021/03/29 08:29:30;;;;;;;7.68;3.10;;;;;;;14.08;41.74;100192.13;5033833;28;20037;-68
2021/03/29 08:32:24;;;;;;;6.15;3.20;;;;;;;14.26;41.90;100194.53;5033603;28;20121;-69
2021/03/29 08:34:50;;;;;;;2.70;2.28;;;;;;;14.32;39.10;100194.47;5036232;28;20040;-68
2021/03/29 08:37:27;;;;;;;5.28;2.83;;;;;;;14.53;39.20;100186.56;5030319;28;20438;-68
2021/03/29 08:39:55;;;;;;;6.88;2.80;;;;;;;14.57;39.32;100195.97;5034546;28;20047;-69
2021/03/29 08:42:24;;;;;;;4.40;2.28;;;;;;;14.59;37.99;100193.41;5030533;28;20018;-68
2021/03/29 08:44:51;;;;;;;5.10;2.42;;;;;;;14.71;37.65;100197.56;5035202;28;20022;-69
2021/03/29 08:47:26;;;;;;;4.30;2.53;;;;;;;14.48;37.39;100190.91;5032606;28;20053;-69
2021/03/29 08:50:00;;;;;;;5.85;3.05;;;;;;;14.68;37.30;100190.72;5031327;28;20037;-68
2021/03/29 08:52:37;;;;;;;2.50;2.30;;;;;;;14.58;37.13;100202.00;5047596;28;20029;-69
2021/03/29 08:55:03;;;;;;;4.03;2.40;;;;;;;14.53;36.54;100196.88;5034453;28;20155;-68
2021/03/29 08:57:29;;;;;;;3.90;2.30;;;;;;;14.80;37.19;100200.06;5030822;28;20107;-69
2021/03/29 08:59:57;;;;;;;4.10;2.90;;;;;;;14.62;36.53;100201.97;5033665;28;20026;-68
2021/03/29 09:02:24;;;;;;;4.43;2.75;;;;;;;14.73;36.48;100195.81;5036534;28;20040;-68
2021/03/29 09:04:50;;;;;;;3.75;2.67;;;;;;;14.93;36.38;100201.63;5031641;28;20400;-69
2021/03/29 09:07:16;;;;;;;3.85;2.58;;;;;;;14.59;36.54;100207.16;5034345;28;20045;-68
2021/03/29 09:09:42;;;;;;;3.00;2.70;;;;;;;14.51;36.93;100213.28;5031325;28;20033;-67
2021/03/29 09:12:07;;;;;;;3.65;2.13;;;;;;;14.44;37.31;100189.22;5036062;28;20104;-67
2021/03/29 09:14:34;;;;;;;4.30;2.30;;;;;;;14.57;37.00;100197.72;5032891;28;20032;-68
2021/03/29 09:17:01;;;;;;;5.47;3.10;;;;;;;14.42;36.93;100192.72;5034349;28;20040;-68
2021/03/29 09:19:27;;;;;;;2.78;2.17;;;;;;;14.37;37.65;100200.50;5051479;28;20040;-70
2021/03/29 09:21:59;;;;;;;9.15;2.95;;;;;;;14.36;37.05;100198.78;5032506;28;20104;-68
2021/03/29 09:24:27;;;;;;;6.10;2.72;;;;;;;14.19;37.59;100192.88;5027785;28;20029;-64
2021/03/29 09:27:11;;;;;;;3.08;2.20;;;;;;;14.34;37.41;100192.72;5035598;28;20032;-68
2021/03/29 09:29:41;;;;;;;3.05;2.30;;;;;;;14.35;37.57;100197.06;5031253;28;20112;-66
2021/03/29 09:32:16;;;;;;;4.95;2.50;;;;;;;14.27;36.87;100192.78;5035228;28;20030;-66
2021/03/29 09:34:45;;;;;;;5.63;2.28;;;;;;;14.39;37.44;100208.19;5033230;28;20052;-66
2021/03/29 09:37:25;;;;;;;3.95;2.40;;;;;;;14.54;37.12;100187.41;5036872;28;20043;-66
2021/03/29 09:39:59;;;;;;;3.78;2.58;;;;;;;14.80;36.97;100185.44;5038001;28;20026;-70
2021/03/29 09:42:49;;;;;;;4.30;2.50;;;;;;;14.99;35.91;100186.03;5029773;28;20029;-69
2021/03/29 09:45:25;;;;;;;5.53;2.75;;;;;;;15.08;35.88;100184.22;5032687;28;20039;-69
2021/03/29 09:48:01;;;;;;;3.35;2.20;;;;;;;15.34;35.85;100176.13;5033397;28;20060;-70
2021/03/29 09:50:39;;;;;;;5.05;2.13;;;;;;;15.54;36.39;100179.31;5032396;28;20128;-67
2021/03/29 09:53:12;;;;;;;4.85;2.40;;;;;;;15.83;34.82;100175.44;5033884;28;20026;-67
2021/03/29 09:55:55;;;;;;;4.82;2.25;;;;;;;15.99;34.82;100167.44;5032752;28;20120;-71
2021/03/29 09:58:37;;;;;;;2.97;2.58;;;;;;;15.98;35.00;100175.22;5033571;28;20041;-70
2021/03/29 10:01:15;;;;;;;6.75;3.30;;;;;;;16.22;34.95;100177.38;5031601;28;20311;-71
2021/03/29 10:03:55;;;;;;;4.70;2.28;;;;;;;16.10;33.64;100179.31;5035445;28;20120;-72
2021/03/29 10:06:21;;;;;;;6.10;2.97;;;;;;;15.62;34.80;100174.03;5031992;28;20032;-71
2021/03/29 10:09:02;;;;;;;8.35;2.35;;;;;;;15.64;34.23;100174.03;5034606;28;20045;-72
2021/03/29 10:11:45;;;;;;;4.38;2.10;;;;;;;15.56;34.22;100168.97;5029398;28;20033;-72
2021/03/29 10:14:15;;;;;;;4.50;2.40;;;;;;;15.35;34.55;100161.47;5030267;28;20044;-73
2021/03/29 10:16:48;;;;;;;4.07;1.70;;;;;;;15.59;33.59;100163.75;5031292;28;20378;-72
2021/03/29 10:19:16;;;;;;;4.85;2.13;;;;;;;15.51;34.60;100150.94;5030663;28;20084;-72
2021/03/29 10:22:18;;;;;;;4.43;2.13;;;;;;;15.77;33.69;100149.69;5028686;28;20033;-73
2021/03/29 10:24:59;;;;;;;6.80;2.38;;;;;;;16.05;32.98;100155.25;5030477;28;20026;-73
2021/03/29 10:27:35;;;;;;;8.40;2.33;;;;;;;15.92;32.60;100149.44;5031689;28;20043;-74
2021/03/29 10:30:00;;;;;;;2.60;1.95;;;;;;;15.89;31.51;100144.31;5029801;28;20124;-72
2021/03/29 10:32:26;;;;;;;7.40;2.00;;;;;;;15.94;30.64;100139.94;5034144;28;20124;-72
2021/03/29 10:34:51;;;;;;;5.38;2.08;;;;;;;16.03;29.71;100138.91;5031928;28;20095;-72
2021/03/29 10:37:19;;;;;;;4.80;2.28;;;;;;;16.19;31.76;100148.97;5032059;28;20353;-72
2021/03/29 10:39:44;;;;;;;3.63;1.88;;;;;;;16.17;28.26;100139.50;5034071;28;20350;-70
2021/03/29 10:42:12;;;;;;;5.82;2.25;;;;;;;16.11;30.09;100140.50;5033282;28;20044;-71
2021/03/29 10:44:38;;;;;;;3.60;2.33;;;;;;;16.19;30.22;100137.78;5031156;28;20033;-70
2021/03/29 10:47:04;;;;;;;4.10;1.63;;;;;;;16.09;29.47;100123.28;5031121;28;20460;-71
2021/03/29 10:49:29;;;;;;;5.00;1.40;;;;;;;16.08;28.21;100137.97;5024602;28;20029;-71
2021/03/29 10:51:55;;;;;;;4.10;2.10;;;;;;;16.14;28.12;100137.84;5025772;28;20030;-68
2021/03/29 10:54:20;;;;;;;6.88;2.47;;;;;;;16.06;28.34;100116.44;5028881;28;20112;-68
2021/03/29 10:56:46;;;;;;;3.72;1.92;;;;;;;16.27;28.62;100123.81;5028164;28;20333;-69
2021/03/29 10:59:12;;;;;;;2.97;1.30;;;;;;;16.42;26.99;100123.53;5026246;28;20030;-72
2021/03/29 11:01:38;;;;;;;2.42;1.70;;;;;;;16.65;26.77;100120.53;5028359;28;20322;-70
2021/03/29 11:05:18;;;;;;;2.17;1.70;;;;;;;17.09;27.30;100118.78;5112980;27;20363;-66
2021/03/29 11:07:44;;;;;;;2.35;1.75;;;;;;;17.10;25.48;100110.13;5107831;28;20031;-71
2021/03/29 11:10:11;;;;;;;3.47;2.17;;;;;;;17.59;26.28;100107.28;5109268;28;20086;-70
2021/03/29 11:12:36;;;;;;;5.90;2.00;;;;;;;17.61;26.70;100108.94;5108919;28;20103;-71
2021/03/29 11:15:03;;;;;;;3.38;2.40;;;;;;;17.40;26.58;100111.16;5110758;28;20395;-70
2021/03/29 11:17:29;;;;;;;3.45;2.00;;;;;;;17.22;26.62;100104.66;5108154;28;20027;-70
2021/03/29 11:19:55;;;;;;;6.82;2.45;;;;;;;17.47;26.13;100100.63;5106875;28;20042;-70
2021/03/29 11:22:20;;;;;;;3.30;2.25;;;;;;;17.65;26.58;100107.16;5108015;28;20028;-69
2021/03/29 11:24:46;;;;;;;5.25;2.55;;;;;;;17.83;25.92;100111.88;5112200;28;20084;-69
2021/03/29 11:27:12;;;;;;;5.13;2.22;;;;;;;17.89;26.07;100103.94;5109250;28;20585;-69
2021/03/29 11:29:38;;;;;;;4.50;2.40;;;;;;;18.14;26.07;100101.56;5110340;28;20023;-70
2021/03/29 11:32:04;;;;;;;3.67;2.67;;;;;;;18.22;25.74;100100.47;5089052;28;20111;-70
2021/03/29 11:34:29;;;;;;;4.90;2.75;;;;;;;18.24;26.75;100092.66;5091824;28;20409;-69
2021/03/29 11:36:55;;;;;;;6.65;2.85;;;;;;;18.36;26.45;100091.47;5108571;28;20033;-69
2021/03/29 11:39:20;;;;;;;3.40;2.40;;;;;;;18.24;27.06;100083.13;5106436;28;20264;-71
2021/03/29 11:41:45;;;;;;;4.68;2.30;;;;;;;18.63;26.39;100091.56;5106497;28;20268;-70
2021/03/29 11:44:11;;;;;;;3.50;2.15;;;;;;;18.39;26.48;100099.16;5112576;28;20296;-70
2021/03/29 11:46:36;;;;;;;7.70;2.90;;;;;;;18.35;27.19;100081.97;5113314;28;20119;-70